sensor_id;sensor_type;location;lat;lon;timestamp;P1;durP1;ratioP1;P2;durP2;ratioP2
6342;SDS011;3204;42.698;23.298;2022-08-25T00:01:14;24.90;;;10.63;;
6342;SDS011;3204;42.698;23.298;2022-08-25T00:03:45;31.05;;;11.57;;
6342;SDS011;3204;42.698;23.298;2022-08-25T00:06:12;19.73;;;11.20;;
6342;SDS011;3204;42.698;23.298;2022-08-25T00:08:38;27.23;;;10.63;;
6342;SDS011;3204;42.698;23.298;2022-08-25T00:11:08;17.27;;;11.13;;
6342;SDS011;3204;42.698;23.298;2022-08-25T00:13:37;17.85;;;11.02;;
6342;SDS011;3204;42.698;23.298;2022-08-25T00:16:05;24.23;;;11.30;;
6342;SDS011;3204;42.698;23.298;2022-08-25T00:18:31;25.65;;;11.40;;
6342;SDS011;3204;42.698;23.298;2022-08-25T00:20:57;20.92;;;11.77;;
6342;SDS011;3204;42.698;23.298;2022-08-25T00:23:22;27.52;;;11.50;;
6342;SDS011;3204;42.698;23.298;2022-08-25T00:25:48;27.88;;;11.70;;
6342;SDS011;3204;42.698;23.298;2022-08-25T00:28:14;20.33;;;11.77;;
6342;SDS011;3204;42.698;23.298;2022-08-25T00:30:41;18.40;;;11.07;;
6342;SDS011;3204;42.698;23.298;2022-08-25T00:33:07;21.13;;;11.25;;
6342;SDS011;3204;42.698;23.298;2022-08-25T00:35:32;23.67;;;11.32;;
6342;SDS011;3204;42.698;23.298;2022-08-25T00:37:58;22.85;;;10.77;;
6342;SDS011;3204;42.698;23.298;2022-08-25T00:40:24;19.55;;;11.60;;
6342;SDS011;3204;42.698;23.298;2022-08-25T00:42:51;26.35;;;11.40;;
6342;SDS011;3204;42.698;23.298;2022-08-25T00:45:16;20.85;;;10.52;;
6342;SDS011;3204;42.698;23.298;2022-08-25T00:47:42;24.38;;;11.38;;
6342;SDS011;3204;42.698;23.298;2022-08-25T00:50:08;17.48;;;11.27;;
6342;SDS011;3204;42.698;23.298;2022-08-25T00:52:37;23.65;;;11.57;;
6342;SDS011;3204;42.698;23.298;2022-08-25T00:57:39;18.40;;;11.10;;
6342;SDS011;3204;42.698;23.298;2022-08-25T01:00:18;19.50;;;10.70;;
6342;SDS011;3204;42.698;23.298;2022-08-25T01:02:47;21.13;;;11.57;;
6342;SDS011;3204;42.698;23.298;2022-08-25T01:05:14;17.85;;;11.30;;
6342;SDS011;3204;42.698;23.298;2022-08-25T01:07:42;34.05;;;11.73;;
6342;SDS011;3204;42.698;23.298;2022-08-25T01:10:08;22.90;;;11.77;;
6342;SDS011;3204;42.698;23.298;2022-08-25T01:12:37;24.75;;;11.23;;
6342;SDS011;3204;42.698;23.298;2022-08-25T01:15:05;20.90;;;11.20;;
6342;SDS011;3204;42.698;23.298;2022-08-25T01:17:38;18.02;;;10.98;;
6342;SDS011;3204;42.698;23.298;2022-08-25T01:20:10;26.98;;;10.95;;
6342;SDS011;3204;42.698;23.298;2022-08-25T01:22:38;18.73;;;10.77;;
6342;SDS011;3204;42.698;23.298;2022-08-25T01:25:06;25.25;;;11.02;;
6342;SDS011;3204;42.698;23.298;2022-08-25T01:27:46;21.00;;;10.68;;
6342;SDS011;3204;42.698;23.298;2022-08-25T01:30:12;17.65;;;11.30;;
6342;SDS011;3204;42.698;23.298;2022-08-25T01:32:38;18.85;;;10.85;;
6342;SDS011;3204;42.698;23.298;2022-08-25T01:35:04;18.15;;;10.40;;
6342;SDS011;3204;42.698;23.298;2022-08-25T01:37:30;15.30;;;10.43;;
6342;SDS011;3204;42.698;23.298;2022-08-25T01:39:58;25.80;;;11.55;;
6342;SDS011;3204;42.698;23.298;2022-08-25T01:42:28;27.77;;;11.70;;
6342;SDS011;3204;42.698;23.298;2022-08-25T01:45:16;28.63;;;11.50;;
6342;SDS011;3204;42.698;23.298;2022-08-25T01:47:42;33.78;;;10.60;;
6342;SDS011;3204;42.698;23.298;2022-08-25T01:50:08;24.50;;;10.68;;
6342;SDS011;3204;42.698;23.298;2022-08-25T01:52:44;19.85;;;10.02;;
6342;SDS011;3204;42.698;23.298;2022-08-25T01:55:13;20.17;;;9.70;;
6342;SDS011;3204;42.698;23.298;2022-08-25T01:57:39;20.45;;;9.85;;
6342;SDS011;3204;42.698;23.298;2022-08-25T02:00:06;25.67;;;10.23;;
6342;SDS011;3204;42.698;23.298;2022-08-25T02:02:32;20.27;;;10.52;;
6342;SDS011;3204;42.698;23.298;2022-08-25T02:04:58;16.60;;;9.10;;
6342;SDS011;3204;42.698;23.298;2022-08-25T02:07:24;22.17;;;10.02;;
6342;SDS011;3204;42.698;23.298;2022-08-25T02:09:49;19.42;;;9.45;;
6342;SDS011;3204;42.698;23.298;2022-08-25T02:12:14;19.55;;;9.27;;
6342;SDS011;3204;42.698;23.298;2022-08-25T02:14:40;16.80;;;9.57;;
6342;SDS011;3204;42.698;23.298;2022-08-25T02:17:06;22.90;;;9.80;;
6342;SDS011;3204;42.698;23.298;2022-08-25T02:19:31;16.58;;;8.45;;
6342;SDS011;3204;42.698;23.298;2022-08-25T02:21:58;17.42;;;9.27;;
6342;SDS011;3204;42.698;23.298;2022-08-25T02:24:24;23.95;;;10.15;;
6342;SDS011;3204;42.698;23.298;2022-08-25T02:26:50;24.88;;;9.23;;
6342;SDS011;3204;42.698;23.298;2022-08-25T02:29:15;15.57;;;9.05;;
6342;SDS011;3204;42.698;23.298;2022-08-25T02:31:41;19.85;;;8.93;;
6342;SDS011;3204;42.698;23.298;2022-08-25T02:34:08;19.42;;;9.50;;
6342;SDS011;3204;42.698;23.298;2022-08-25T02:36:35;19.33;;;10.20;;
6342;SDS011;3204;42.698;23.298;2022-08-25T02:39:02;24.73;;;9.15;;
6342;SDS011;3204;42.698;23.298;2022-08-25T02:41:29;20.20;;;9.15;;
6342;SDS011;3204;42.698;23.298;2022-08-25T02:43:55;16.58;;;8.73;;
6342;SDS011;3204;42.698;23.298;2022-08-25T02:46:21;11.82;;;8.40;;
6342;SDS011;3204;42.698;23.298;2022-08-25T02:48:48;19.80;;;8.73;;
6342;SDS011;3204;42.698;23.298;2022-08-25T02:51:17;20.08;;;9.93;;
6342;SDS011;3204;42.698;23.298;2022-08-25T02:53:43;15.60;;;9.80;;
6342;SDS011;3204;42.698;23.298;2022-08-25T02:56:12;18.27;;;9.63;;
6342;SDS011;3204;42.698;23.298;2022-08-25T02:58:39;25.48;;;9.48;;
6342;SDS011;3204;42.698;23.298;2022-08-25T03:01:06;21.27;;;9.20;;
6342;SDS011;3204;42.698;23.298;2022-08-25T03:03:35;19.30;;;8.43;;
6342;SDS011;3204;42.698;23.298;2022-08-25T03:06:04;22.50;;;9.48;;
6342;SDS011;3204;42.698;23.298;2022-08-25T03:08:33;18.73;;;9.23;;
6342;SDS011;3204;42.698;23.298;2022-08-25T03:11:00;21.42;;;9.07;;
6342;SDS011;3204;42.698;23.298;2022-08-25T03:13:25;17.35;;;9.88;;
6342;SDS011;3204;42.698;23.298;2022-08-25T03:15:51;25.98;;;9.48;;
6342;SDS011;3204;42.698;23.298;2022-08-25T03:18:16;25.60;;;9.98;;
6342;SDS011;3204;42.698;23.298;2022-08-25T03:20:42;21.75;;;9.70;;
6342;SDS011;3204;42.698;23.298;2022-08-25T03:23:08;15.82;;;9.48;;
6342;SDS011;3204;42.698;23.298;2022-08-25T03:25:34;16.70;;;9.27;;
6342;SDS011;3204;42.698;23.298;2022-08-25T03:28:18;13.80;;;8.75;;
6342;SDS011;3204;42.698;23.298;2022-08-25T03:30:44;22.80;;;9.73;;
6342;SDS011;3204;42.698;23.298;2022-08-25T03:33:10;31.27;;;9.98;;
6342;SDS011;3204;42.698;23.298;2022-08-25T03:35:35;19.75;;;9.48;;
6342;SDS011;3204;42.698;23.298;2022-08-25T03:38:01;21.92;;;9.20;;
6342;SDS011;3204;42.698;23.298;2022-08-25T03:40:28;21.27;;;9.75;;
6342;SDS011;3204;42.698;23.298;2022-08-25T03:42:54;17.80;;;9.52;;
6342;SDS011;3204;42.698;23.298;2022-08-25T03:45:21;19.98;;;8.98;;
6342;SDS011;3204;42.698;23.298;2022-08-25T03:47:48;18.75;;;9.38;;
6342;SDS011;3204;42.698;23.298;2022-08-25T03:50:15;18.63;;;9.75;;
6342;SDS011;3204;42.698;23.298;2022-08-25T03:52:42;20.83;;;9.55;;
6342;SDS011;3204;42.698;23.298;2022-08-25T03:55:09;17.58;;;9.88;;
6342;SDS011;3204;42.698;23.298;2022-08-25T03:57:37;24.35;;;10.57;;
6342;SDS011;3204;42.698;23.298;2022-08-25T04:00:07;25.75;;;11.43;;
6342;SDS011;3204;42.698;23.298;2022-08-25T04:02:33;22.55;;;10.45;;
6342;SDS011;3204;42.698;23.298;2022-08-25T04:04:59;25.83;;;10.15;;
6342;SDS011;3204;42.698;23.298;2022-08-25T04:07:25;16.73;;;10.32;;
6342;SDS011;3204;42.698;23.298;2022-08-25T04:09:52;24.90;;;10.32;;
6342;SDS011;3204;42.698;23.298;2022-08-25T04:12:18;16.90;;;10.68;;
6342;SDS011;3204;42.698;23.298;2022-08-25T04:14:44;14.90;;;9.68;;
6342;SDS011;3204;42.698;23.298;2022-08-25T04:17:09;27.95;;;10.43;;
6342;SDS011;3204;42.698;23.298;2022-08-25T04:19:35;20.35;;;10.32;;
6342;SDS011;3204;42.698;23.298;2022-08-25T04:22:01;22.45;;;10.23;;
6342;SDS011;3204;42.698;23.298;2022-08-25T04:24:26;15.70;;;10.10;;
6342;SDS011;3204;42.698;23.298;2022-08-25T04:26:52;17.17;;;10.10;;
6342;SDS011;3204;42.698;23.298;2022-08-25T04:29:19;23.77;;;10.07;;
6342;SDS011;3204;42.698;23.298;2022-08-25T04:31:46;19.58;;;10.27;;
6342;SDS011;3204;42.698;23.298;2022-08-25T04:34:14;21.05;;;10.52;;
6342;SDS011;3204;42.698;23.298;2022-08-25T04:36:44;29.27;;;11.02;;
6342;SDS011;3204;42.698;23.298;2022-08-25T04:39:09;21.23;;;10.88;;
6342;SDS011;3204;42.698;23.298;2022-08-25T04:41:35;23.92;;;11.05;;
6342;SDS011;3204;42.698;23.298;2022-08-25T04:44:00;27.15;;;11.45;;
6342;SDS011;3204;42.698;23.298;2022-08-25T04:46:28;20.85;;;10.60;;
6342;SDS011;3204;42.698;23.298;2022-08-25T04:48:55;25.27;;;10.82;;
6342;SDS011;3204;42.698;23.298;2022-08-25T04:51:23;21.02;;;10.95;;
6342;SDS011;3204;42.698;23.298;2022-08-25T04:53:51;23.25;;;10.82;;
6342;SDS011;3204;42.698;23.298;2022-08-25T04:56:20;15.85;;;10.30;;
6342;SDS011;3204;42.698;23.298;2022-08-25T04:58:49;21.58;;;11.35;;
6342;SDS011;3204;42.698;23.298;2022-08-25T05:01:16;18.10;;;10.98;;
6342;SDS011;3204;42.698;23.298;2022-08-25T05:03:44;20.10;;;10.32;;
6342;SDS011;3204;42.698;23.298;2022-08-25T05:06:11;19.80;;;10.55;;
6342;SDS011;3204;42.698;23.298;2022-08-25T05:08:37;19.25;;;10.73;;
6342;SDS011;3204;42.698;23.298;2022-08-25T05:11:06;29.08;;;9.77;;
6342;SDS011;3204;42.698;23.298;2022-08-25T05:13:33;22.63;;;10.88;;
6342;SDS011;3204;42.698;23.298;2022-08-25T05:15:59;23.77;;;10.45;;
6342;SDS011;3204;42.698;23.298;2022-08-25T05:18:25;22.85;;;11.48;;
6342;SDS011;3204;42.698;23.298;2022-08-25T05:20:54;20.60;;;10.60;;
6342;SDS011;3204;42.698;23.298;2022-08-25T05:23:23;18.88;;;10.50;;
6342;SDS011;3204;42.698;23.298;2022-08-25T05:25:49;19.83;;;11.00;;
6342;SDS011;3204;42.698;23.298;2022-08-25T05:28:16;23.00;;;11.73;;
6342;SDS011;3204;42.698;23.298;2022-08-25T05:30:43;25.85;;;10.85;;
6342;SDS011;3204;42.698;23.298;2022-08-25T05:33:09;29.75;;;10.70;;
6342;SDS011;3204;42.698;23.298;2022-08-25T05:35:36;24.67;;;10.60;;
6342;SDS011;3204;42.698;23.298;2022-08-25T05:38:03;23.63;;;10.30;;
6342;SDS011;3204;42.698;23.298;2022-08-25T05:40:29;19.65;;;10.30;;
6342;SDS011;3204;42.698;23.298;2022-08-25T05:42:55;26.58;;;10.43;;
6342;SDS011;3204;42.698;23.298;2022-08-25T05:45:21;23.90;;;11.02;;
6342;SDS011;3204;42.698;23.298;2022-08-25T05:47:46;15.65;;;10.32;;
6342;SDS011;3204;42.698;23.298;2022-08-25T05:50:13;26.30;;;10.05;;
6342;SDS011;3204;42.698;23.298;2022-08-25T05:52:38;27.55;;;10.90;;
6342;SDS011;3204;42.698;23.298;2022-08-25T05:55:04;22.23;;;10.52;;
6342;SDS011;3204;42.698;23.298;2022-08-25T05:57:31;21.50;;;10.05;;
6342;SDS011;3204;42.698;23.298;2022-08-25T05:59:57;14.70;;;9.35;;
6342;SDS011;3204;42.698;23.298;2022-08-25T06:02:22;22.55;;;10.90;;
6342;SDS011;3204;42.698;23.298;2022-08-25T06:05:11;14.27;;;9.88;;
6342;SDS011;3204;42.698;23.298;2022-08-25T06:07:38;23.52;;;9.98;;
6342;SDS011;3204;42.698;23.298;2022-08-25T06:10:05;14.68;;;9.68;;
6342;SDS011;3204;42.698;23.298;2022-08-25T06:12:32;17.98;;;9.68;;
6342;SDS011;3204;42.698;23.298;2022-08-25T06:15:00;21.88;;;10.10;;
6342;SDS011;3204;42.698;23.298;2022-08-25T06:17:26;14.52;;;10.10;;
6342;SDS011;3204;42.698;23.298;2022-08-25T06:19:52;23.45;;;10.35;;
6342;SDS011;3204;42.698;23.298;2022-08-25T06:22:19;22.02;;;9.95;;
6342;SDS011;3204;42.698;23.298;2022-08-25T06:24:45;17.08;;;9.98;;
6342;SDS011;3204;42.698;23.298;2022-08-25T06:27:11;17.15;;;10.80;;
6342;SDS011;3204;42.698;23.298;2022-08-25T06:29:36;21.15;;;9.45;;
6342;SDS011;3204;42.698;23.298;2022-08-25T06:32:02;21.75;;;9.98;;
6342;SDS011;3204;42.698;23.298;2022-08-25T06:34:28;19.83;;;10.05;;
6342;SDS011;3204;42.698;23.298;2022-08-25T06:36:54;18.27;;;10.02;;
6342;SDS011;3204;42.698;23.298;2022-08-25T06:39:19;18.67;;;9.77;;
6342;SDS011;3204;42.698;23.298;2022-08-25T06:41:49;16.88;;;9.90;;
6342;SDS011;3204;42.698;23.298;2022-08-25T06:44:15;22.70;;;10.35;;
6342;SDS011;3204;42.698;23.298;2022-08-25T06:46:41;21.35;;;9.75;;
6342;SDS011;3204;42.698;23.298;2022-08-25T06:49:06;23.08;;;9.70;;
6342;SDS011;3204;42.698;23.298;2022-08-25T06:51:32;22.23;;;10.32;;
6342;SDS011;3204;42.698;23.298;2022-08-25T06:53:59;20.20;;;9.77;;
6342;SDS011;3204;42.698;23.298;2022-08-25T06:56:25;17.30;;;9.02;;
6342;SDS011;3204;42.698;23.298;2022-08-25T06:58:51;11.32;;;9.02;;
6342;SDS011;3204;42.698;23.298;2022-08-25T07:01:17;15.07;;;9.77;;
6342;SDS011;3204;42.698;23.298;2022-08-25T07:03:47;14.40;;;9.68;;
6342;SDS011;3204;42.698;23.298;2022-08-25T07:06:13;15.00;;;9.13;;
6342;SDS011;3204;42.698;23.298;2022-08-25T07:08:40;21.00;;;10.38;;
6342;SDS011;3204;42.698;23.298;2022-08-25T07:11:06;17.05;;;9.65;;
6342;SDS011;3204;42.698;23.298;2022-08-25T07:13:32;23.33;;;9.43;;
6342;SDS011;3204;42.698;23.298;2022-08-25T07:15:59;21.63;;;9.10;;
6342;SDS011;3204;42.698;23.298;2022-08-25T07:18:25;17.35;;;9.18;;
6342;SDS011;3204;42.698;23.298;2022-08-25T07:20:51;16.08;;;9.35;;
6342;SDS011;3204;42.698;23.298;2022-08-25T07:23:17;18.63;;;8.23;;
6342;SDS011;3204;42.698;23.298;2022-08-25T07:25:44;21.27;;;8.98;;
6342;SDS011;3204;42.698;23.298;2022-08-25T07:28:10;17.27;;;8.52;;
6342;SDS011;3204;42.698;23.298;2022-08-25T07:30:36;19.05;;;7.93;;
6342;SDS011;3204;42.698;23.298;2022-08-25T07:33:02;16.48;;;9.07;;
6342;SDS011;3204;42.698;23.298;2022-08-25T07:35:27;16.42;;;8.25;;
6342;SDS011;3204;42.698;23.298;2022-08-25T07:37:56;20.60;;;10.05;;
6342;SDS011;3204;42.698;23.298;2022-08-25T07:40:29;16.67;;;8.43;;
6342;SDS011;3204;42.698;23.298;2022-08-25T07:42:58;20.35;;;8.60;;
6342;SDS011;3204;42.698;23.298;2022-08-25T07:45:27;17.42;;;8.50;;
6342;SDS011;3204;42.698;23.298;2022-08-25T07:48:02;17.45;;;8.50;;
6342;SDS011;3204;42.698;23.298;2022-08-25T07:50:30;12.55;;;8.48;;
6342;SDS011;3204;42.698;23.298;2022-08-25T07:52:56;16.90;;;8.85;;
6342;SDS011;3204;42.698;23.298;2022-08-25T07:55:23;23.55;;;9.27;;
6342;SDS011;3204;42.698;23.298;2022-08-25T07:57:50;19.00;;;8.77;;
6342;SDS011;3204;42.698;23.298;2022-08-25T08:00:17;12.52;;;7.70;;
6342;SDS011;3204;42.698;23.298;2022-08-25T08:02:43;13.18;;;8.32;;
6342;SDS011;3204;42.698;23.298;2022-08-25T08:05:09;19.38;;;8.10;;
6342;SDS011;3204;42.698;23.298;2022-08-25T08:07:35;11.80;;;8.48;;
6342;SDS011;3204;42.698;23.298;2022-08-25T08:10:01;22.42;;;8.40;;
6342;SDS011;3204;42.698;23.298;2022-08-25T08:12:27;16.13;;;8.13;;
6342;SDS011;3204;42.698;23.298;2022-08-25T08:14:53;18.90;;;7.93;;
6342;SDS011;3204;42.698;23.298;2022-08-25T08:17:19;23.63;;;8.38;;
6342;SDS011;3204;42.698;23.298;2022-08-25T08:19:45;17.63;;;8.57;;
6342;SDS011;3204;42.698;23.298;2022-08-25T08:22:11;14.18;;;8.30;;
6342;SDS011;3204;42.698;23.298;2022-08-25T08:24:39;19.83;;;8.32;;
6342;SDS011;3204;42.698;23.298;2022-08-25T08:27:08;16.40;;;8.15;;
6342;SDS011;3204;42.698;23.298;2022-08-25T08:29:35;22.35;;;8.68;;
6342;SDS011;3204;42.698;23.298;2022-08-25T08:32:02;23.60;;;8.65;;
6342;SDS011;3204;42.698;23.298;2022-08-25T08:34:29;21.52;;;8.98;;
6342;SDS011;3204;42.698;23.298;2022-08-25T08:36:55;17.85;;;8.80;;
6342;SDS011;3204;42.698;23.298;2022-08-25T08:39:21;23.73;;;9.02;;
6342;SDS011;3204;42.698;23.298;2022-08-25T08:44:56;21.88;;;7.63;;
6342;SDS011;3204;42.698;23.298;2022-08-25T08:48:07;21.13;;;8.02;;
6342;SDS011;3204;42.698;23.298;2022-08-25T08:53:48;26.73;;;8.13;;
6342;SDS011;3204;42.698;23.298;2022-08-25T08:57:15;16.30;;;7.80;;
6342;SDS011;3204;42.698;23.298;2022-08-25T08:59:45;24.63;;;7.90;;
6342;SDS011;3204;42.698;23.298;2022-08-25T09:02:17;27.27;;;7.97;;
6342;SDS011;3204;42.698;23.298;2022-08-25T09:04:52;23.35;;;8.85;;
6342;SDS011;3204;42.698;23.298;2022-08-25T09:07:23;27.73;;;8.15;;
6342;SDS011;3204;42.698;23.298;2022-08-25T09:09:54;19.10;;;7.28;;
6342;SDS011;3204;42.698;23.298;2022-08-25T09:15:19;21.23;;;7.53;;
6342;SDS011;3204;42.698;23.298;2022-08-25T09:18:40;26.58;;;7.57;;
6342;SDS011;3204;42.698;23.298;2022-08-25T09:21:15;30.77;;;7.20;;
6342;SDS011;3204;42.698;23.298;2022-08-25T09:27:05;26.20;;;6.90;;
6342;SDS011;3204;42.698;23.298;2022-08-25T09:29:23;28.98;;;8.23;;
6342;SDS011;3204;42.698;23.298;2022-08-25T09:31:59;22.75;;;6.63;;
6342;SDS011;3204;42.698;23.298;2022-08-25T09:34:29;19.90;;;6.78;;
6342;SDS011;3204;42.698;23.298;2022-08-25T09:36:57;23.25;;;7.57;;
6342;SDS011;3204;42.698;23.298;2022-08-25T09:39:24;27.05;;;7.05;;
6342;SDS011;3204;42.698;23.298;2022-08-25T09:41:53;22.88;;;5.82;;
6342;SDS011;3204;42.698;23.298;2022-08-25T09:44:23;21.40;;;6.07;;
6342;SDS011;3204;42.698;23.298;2022-08-25T09:54:50;20.05;;;5.75;;
6342;SDS011;3204;42.698;23.298;2022-08-25T09:59:53;18.48;;;5.38;;
6342;SDS011;3204;42.698;23.298;2022-08-25T10:04:52;29.38;;;6.25;;
6342;SDS011;3204;42.698;23.298;2022-08-25T10:09:56;30.80;;;6.20;;
6342;SDS011;3204;42.698;23.298;2022-08-25T10:17:41;25.20;;;5.55;;
6342;SDS011;3204;42.698;23.298;2022-08-25T10:22:36;24.25;;;4.90;;
6342;SDS011;3204;42.698;23.298;2022-08-25T10:25:03;24.70;;;4.97;;
6342;SDS011;3204;42.698;23.298;2022-08-25T10:30:29;29.42;;;4.35;;
6342;SDS011;3204;42.698;23.298;2022-08-25T10:35:33;25.45;;;4.32;;
6342;SDS011;3204;42.698;23.298;2022-08-25T10:38:05;15.32;;;4.00;;
6342;SDS011;3204;42.698;23.298;2022-08-25T10:40:42;27.77;;;4.88;;
6342;SDS011;3204;42.698;23.298;2022-08-25T10:46:06;27.45;;;3.90;;
6342;SDS011;3204;42.698;23.298;2022-08-25T10:51:48;20.52;;;4.75;;
6342;SDS011;3204;42.698;23.298;2022-08-25T10:54:28;21.75;;;4.13;;
6342;SDS011;3204;42.698;23.298;2022-08-25T11:02:25;24.27;;;4.30;;
6342;SDS011;3204;42.698;23.298;2022-08-25T11:07:51;15.80;;;4.25;;
6342;SDS011;3204;42.698;23.298;2022-08-25T11:10:26;22.30;;;4.53;;
6342;SDS011;3204;42.698;23.298;2022-08-25T11:13:03;25.65;;;4.72;;
6342;SDS011;3204;42.698;23.298;2022-08-25T11:15:53;23.30;;;4.75;;
6342;SDS011;3204;42.698;23.298;2022-08-25T11:18:24;25.52;;;4.50;;
6342;SDS011;3204;42.698;23.298;2022-08-25T11:21:01;19.35;;;4.78;;
6342;SDS011;3204;42.698;23.298;2022-08-25T11:23:49;21.33;;;4.53;;
6342;SDS011;3204;42.698;23.298;2022-08-25T11:26:27;18.48;;;4.72;;
6342;SDS011;3204;42.698;23.298;2022-08-25T11:29:11;21.02;;;5.05;;
6342;SDS011;3204;42.698;23.298;2022-08-25T11:31:44;11.30;;;4.15;;
6342;SDS011;3204;42.698;23.298;2022-08-25T11:34:13;23.25;;;4.60;;
6342;SDS011;3204;42.698;23.298;2022-08-25T11:36:41;18.35;;;4.78;;
6342;SDS011;3204;42.698;23.298;2022-08-25T11:48:27;11.75;;;3.92;;
6342;SDS011;3204;42.698;23.298;2022-08-25T11:51:12;16.45;;;4.30;;
6342;SDS011;3204;42.698;23.298;2022-08-25T11:53:51;19.60;;;4.55;;
6342;SDS011;3204;42.698;23.298;2022-08-25T11:56:40;16.92;;;4.85;;
6342;SDS011;3204;42.698;23.298;2022-08-25T11:59:06;18.13;;;4.78;;
6342;SDS011;3204;42.698;23.298;2022-08-25T12:01:58;21.88;;;4.22;;
6342;SDS011;3204;42.698;23.298;2022-08-25T12:09:30;11.70;;;4.10;;
6342;SDS011;3204;42.698;23.298;2022-08-25T12:12:35;13.82;;;5.10;;
6342;SDS011;3204;42.698;23.298;2022-08-25T12:23:28;15.10;;;4.35;;
6342;SDS011;3204;42.698;23.298;2022-08-25T12:26:00;15.88;;;4.68;;
6342;SDS011;3204;42.698;23.298;2022-08-25T12:36:48;18.38;;;4.80;;
6342;SDS011;3204;42.698;23.298;2022-08-25T12:39:36;15.38;;;3.85;;
6342;SDS011;3204;42.698;23.298;2022-08-25T12:42:17;20.75;;;3.95;;
6342;SDS011;3204;42.698;23.298;2022-08-25T12:45:09;23.08;;;4.50;;
6342;SDS011;3204;42.698;23.298;2022-08-25T12:47:44;9.77;;;3.55;;
6342;SDS011;3204;42.698;23.298;2022-08-25T12:53:14;15.45;;;4.63;;
6342;SDS011;3204;42.698;23.298;2022-08-25T12:55:52;13.95;;;3.97;;
6342;SDS011;3204;42.698;23.298;2022-08-25T12:58:22;12.10;;;4.53;;
6342;SDS011;3204;42.698;23.298;2022-08-25T13:03:43;16.42;;;4.85;;
6342;SDS011;3204;42.698;23.298;2022-08-25T13:09:17;15.18;;;3.85;;
6342;SDS011;3204;42.698;23.298;2022-08-25T13:12:12;18.85;;;3.88;;
6342;SDS011;3204;42.698;23.298;2022-08-25T13:14:40;14.82;;;4.20;;
6342;SDS011;3204;42.698;23.298;2022-08-25T13:17:07;16.77;;;3.90;;
6342;SDS011;3204;42.698;23.298;2022-08-25T13:19:33;8.45;;;3.85;;
6342;SDS011;3204;42.698;23.298;2022-08-25T13:22:00;9.75;;;3.80;;
6342;SDS011;3204;42.698;23.298;2022-08-25T13:24:34;14.75;;;4.93;;
6342;SDS011;3204;42.698;23.298;2022-08-25T13:27:05;25.45;;;4.50;;
6342;SDS011;3204;42.698;23.298;2022-08-25T13:29:34;22.40;;;4.65;;
6342;SDS011;3204;42.698;23.298;2022-08-25T13:32:13;11.63;;;4.18;;
6342;SDS011;3204;42.698;23.298;2022-08-25T13:34:48;16.20;;;4.03;;
6342;SDS011;3204;42.698;23.298;2022-08-25T13:37:18;10.15;;;3.38;;
6342;SDS011;3204;42.698;23.298;2022-08-25T13:43:03;14.20;;;4.30;;
6342;SDS011;3204;42.698;23.298;2022-08-25T13:45:32;21.35;;;4.68;;
6342;SDS011;3204;42.698;23.298;2022-08-25T13:48:02;11.68;;;3.45;;
6342;SDS011;3204;42.698;23.298;2022-08-25T13:55:37;24.63;;;4.13;;
6342;SDS011;3204;42.698;23.298;2022-08-25T13:58:18;21.27;;;4.38;;
6342;SDS011;3204;42.698;23.298;2022-08-25T14:03:27;13.23;;;4.68;;
6342;SDS011;3204;42.698;23.298;2022-08-25T14:06:06;18.10;;;3.47;;
6342;SDS011;3204;42.698;23.298;2022-08-25T14:13:41;10.95;;;3.38;;
6342;SDS011;3204;42.698;23.298;2022-08-25T14:16:19;17.30;;;4.22;;
6342;SDS011;3204;42.698;23.298;2022-08-25T14:18:51;25.63;;;4.35;;
6342;SDS011;3204;42.698;23.298;2022-08-25T14:21:21;19.65;;;4.28;;
6342;SDS011;3204;42.698;23.298;2022-08-25T14:23:49;15.32;;;4.25;;
6342;SDS011;3204;42.698;23.298;2022-08-25T14:26:16;11.88;;;4.35;;
6342;SDS011;3204;42.698;23.298;2022-08-25T14:28:42;16.15;;;4.05;;
6342;SDS011;3204;42.698;23.298;2022-08-25T14:31:08;15.38;;;4.60;;
6342;SDS011;3204;42.698;23.298;2022-08-25T14:33:42;19.42;;;4.72;;
6342;SDS011;3204;42.698;23.298;2022-08-25T14:36:15;11.48;;;3.90;;
6342;SDS011;3204;42.698;23.298;2022-08-25T14:38:41;12.13;;;3.30;;
6342;SDS011;3204;42.698;23.298;2022-08-25T14:41:06;9.95;;;3.50;;
6342;SDS011;3204;42.698;23.298;2022-08-25T14:43:32;11.93;;;3.60;;
6342;SDS011;3204;42.698;23.298;2022-08-25T14:45:59;10.50;;;3.78;;
6342;SDS011;3204;42.698;23.298;2022-08-25T14:48:32;18.67;;;4.32;;
6342;SDS011;3204;42.698;23.298;2022-08-25T14:51:03;15.20;;;3.80;;
6342;SDS011;3204;42.698;23.298;2022-08-25T14:53:29;23.17;;;3.90;;
6342;SDS011;3204;42.698;23.298;2022-08-25T14:55:55;18.13;;;4.30;;
6342;SDS011;3204;42.698;23.298;2022-08-25T14:58:21;15.32;;;3.78;;
6342;SDS011;3204;42.698;23.298;2022-08-25T15:00:48;24.77;;;4.10;;
6342;SDS011;3204;42.698;23.298;2022-08-25T15:03:15;16.27;;;4.05;;
6342;SDS011;3204;42.698;23.298;2022-08-25T15:05:45;23.30;;;4.80;;
6342;SDS011;3204;42.698;23.298;2022-08-25T15:08:11;16.90;;;4.45;;
6342;SDS011;3204;42.698;23.298;2022-08-25T15:10:55;17.65;;;4.68;;
6342;SDS011;3204;42.698;23.298;2022-08-25T15:13:21;13.52;;;4.38;;
6342;SDS011;3204;42.698;23.298;2022-08-25T15:15:47;13.73;;;4.43;;
6342;SDS011;3204;42.698;23.298;2022-08-25T15:18:13;29.95;;;4.55;;
6342;SDS011;3204;42.698;23.298;2022-08-25T15:20:41;15.05;;;4.55;;
6342;SDS011;3204;42.698;23.298;2022-08-25T15:23:06;14.98;;;4.07;;
6342;SDS011;3204;42.698;23.298;2022-08-25T15:25:33;15.85;;;4.40;;
6342;SDS011;3204;42.698;23.298;2022-08-25T15:27:59;16.20;;;4.13;;
6342;SDS011;3204;42.698;23.298;2022-08-25T15:30:28;25.13;;;4.30;;
6342;SDS011;3204;42.698;23.298;2022-08-25T15:32:53;19.42;;;4.68;;
6342;SDS011;3204;42.698;23.298;2022-08-25T15:35:19;27.38;;;4.95;;
6342;SDS011;3204;42.698;23.298;2022-08-25T15:37:44;11.98;;;4.55;;
6342;SDS011;3204;42.698;23.298;2022-08-25T15:40:12;12.75;;;4.28;;
6342;SDS011;3204;42.698;23.298;2022-08-25T15:42:38;12.35;;;4.50;;
6342;SDS011;3204;42.698;23.298;2022-08-25T15:45:03;19.30;;;4.68;;
6342;SDS011;3204;42.698;23.298;2022-08-25T15:47:29;24.75;;;5.00;;
6342;SDS011;3204;42.698;23.298;2022-08-25T15:50:04;21.50;;;4.72;;
6342;SDS011;3204;42.698;23.298;2022-08-25T15:52:32;13.80;;;3.92;;
6342;SDS011;3204;42.698;23.298;2022-08-25T15:54:58;19.65;;;4.68;;
6342;SDS011;3204;42.698;23.298;2022-08-25T15:57:24;12.50;;;4.43;;
6342;SDS011;3204;42.698;23.298;2022-08-25T15:59:49;20.38;;;4.68;;
6342;SDS011;3204;42.698;23.298;2022-08-25T16:02:16;17.45;;;4.18;;
6342;SDS011;3204;42.698;23.298;2022-08-25T16:04:42;19.92;;;4.55;;
6342;SDS011;3204;42.698;23.298;2022-08-25T16:07:07;19.55;;;4.82;;
6342;SDS011;3204;42.698;23.298;2022-08-25T16:09:33;16.92;;;4.50;;
6342;SDS011;3204;42.698;23.298;2022-08-25T16:12:00;22.73;;;5.13;;
6342;SDS011;3204;42.698;23.298;2022-08-25T16:14:26;19.70;;;5.07;;
6342;SDS011;3204;42.698;23.298;2022-08-25T16:16:51;17.10;;;4.93;;
6342;SDS011;3204;42.698;23.298;2022-08-25T16:19:17;16.73;;;4.82;;
6342;SDS011;3204;42.698;23.298;2022-08-25T16:21:42;14.02;;;4.75;;
6342;SDS011;3204;42.698;23.298;2022-08-25T16:24:09;19.13;;;4.68;;
6342;SDS011;3204;42.698;23.298;2022-08-25T16:26:35;17.80;;;4.90;;
6342;SDS011;3204;42.698;23.298;2022-08-25T16:29:06;22.20;;;5.00;;
6342;SDS011;3204;42.698;23.298;2022-08-25T16:31:32;28.75;;;7.65;;
6342;SDS011;3204;42.698;23.298;2022-08-25T16:33:58;21.17;;;5.50;;
6342;SDS011;3204;42.698;23.298;2022-08-25T16:36:25;12.85;;;4.85;;
6342;SDS011;3204;42.698;23.298;2022-08-25T16:38:52;26.55;;;5.00;;
6342;SDS011;3204;42.698;23.298;2022-08-25T16:41:22;16.73;;;4.53;;
6342;SDS011;3204;42.698;23.298;2022-08-25T16:43:51;20.13;;;4.90;;
6342;SDS011;3204;42.698;23.298;2022-08-25T16:46:18;20.88;;;5.10;;
6342;SDS011;3204;42.698;23.298;2022-08-25T16:48:44;19.63;;;4.47;;